Time;durP1;ratioP1;P1;durP2;ratioP2;P2;SDS_P1;SDS_P2;PMS_P1;PMS_P2;Temp;Humidity;BMP_temperature;BMP_pressure;BME280_temperature;BME280_humidity;BME280_pressure;Samples;Min_cycle;Max_cycle;Signal;HPM_P1;HPM_P2
2022/01/26 00:07:10;;;;;;;;;;;;;;;-3.21;43.14;100730.03;5028557;28;19920;-84
2022/01/26 00:09:35;;;;;;;;;;;;;;;-3.08;43.14;100738.56;5028982;28;19909;-84
2022/01/26 00:12:01;;;;;;;;;;;;;;;-3.11;42.51;100730.66;5028788;28;19909;-84
2022/01/26 00:14:26;;;;;;;;;;;;;;;-3.19;42.08;100737.09;5028047;28;20051;-85
2022/01/26 00:16:52;;;;;;;;;;;;;;;-3.31;42.62;100728.63;5027188;28;19920;-84
2022/01/26 00:19:25;;;;;;;;;;;;;;;-3.21;42.25;100730.94;5027365;28;19913;-84
2022/01/26 00:31:12;;;;;;;;;;;;;;;-3.32;42.35;100729.44;4974538;28;20281;-85
2022/01/26 00:41:03;;;;;;;;;;;;;;;-2.94;42.09;100718.69;5028308;28;19963;-85
2022/01/26 00:43:29;;;;;;;;;;;;;;;-2.89;40.79;100721.53;5028084;28;20763;-85
2022/01/26 00:45:56;;;;;;;;;;;;;;;-2.88;41.19;100700.06;5027376;28;19921;-85
2022/01/26 00:48:22;;;;;;;;;;;;;;;-2.82;40.47;100705.56;5028234;28;20730;-85
2022/01/26 00:50:52;;;;;;;;;;;;;;;-2.91;40.30;100710.22;5028570;28;19976;-85
2022/01/26 00:53:19;;;;;;;;;;;;;;;-2.98;40.26;100698.69;5028121;28;19959;-85
2022/01/26 00:55:45;;;;;;;;;;;;;;;-3.04;40.98;100698.34;5027972;28;19916;-85
2022/01/26 00:58:10;;;;;;;;;;;;;;;-3.01;40.97;100695.03;5026934;28;19923;-86
2022/01/26 01:00:35;;;;;;;;;;;;;;;-3.25;40.85;100698.03;5027600;28;19913;-87
2022/01/26 01:03:01;;;;;;;;;;;;;;;-3.27;41.23;100690.19;5026500;28;19917;-86
2022/01/26 01:05:34;;;;;;;;;;;;;;;-3.31;41.07;100687.34;5027384;28;19917;-85
2022/01/26 01:08:04;;;;;;;;;;;;;;;-3.24;41.28;100685.19;5027687;28;20342;-85
2022/01/26 01:10:30;;;;;;;;;;;;;;;-3.24;41.18;100687.78;5025236;28;19979;-85
2022/01/26 01:12:57;;;;;;;;;;;;;;;-3.16;41.75;100695.06;5025938;28;19963;-85
2022/01/26 01:15:24;;;;;;;;;;;;;;;-3.28;41.83;100684.94;5026910;28;20579;-85
2022/01/26 01:17:53;;;;;;;;;;;;;;;-3.29;41.29;100684.06;5025780;28;19913;-86
2022/01/26 01:30:52;;;;;;;;;;;;;;;-3.27;41.56;100669.53;5026474;28;20470;-86
2022/01/26 01:33:21;;;;;;;;;;;;;;;-3.13;41.48;100667.72;5026279;28;19920;-85
2022/01/26 01:35:47;;;;;;;;;;;;;;;-3.21;41.51;100668.09;5026750;28;19979;-85
2022/01/26 01:38:16;;;;;;;;;;;;;;;-3.29;41.42;100667.66;5027226;28;20372;-85
2022/01/26 01:40:43;;;;;;;;;;;;;;;-3.21;41.42;100662.94;5026725;28;19917;-85
2022/01/26 01:43:09;;;;;;;;;;;;;;;-3.14;41.46;100655.63;5026040;28;20372;-86
2022/01/26 01:45:35;;;;;;;;;;;;;;;-3.38;41.69;100656.84;5026163;28;19927;-85
2022/01/26 01:48:01;;;;;;;;;;;;;;;-3.33;41.30;100665.75;5027201;28;19909;-85
2022/01/26 01:50:26;;;;;;;;;;;;;;;-3.37;41.92;100661.19;5026725;28;19917;-85
2022/01/26 01:52:59;;;;;;;;;;;;;;;-3.44;41.07;100660.84;5026452;28;19924;-85
2022/01/26 01:55:27;;;;;;;;;;;;;;;-3.37;41.65;100658.63;5025273;28;20439;-85
2022/01/26 01:57:52;;;;;;;;;;;;;;;-3.36;41.09;100661.28;5026885;28;19913;-85
2022/01/26 02:00:17;;;;;;;;;;;;;;;-3.19;40.52;100658.78;5026693;28;20398;-84
2022/01/26 02:02:43;;;;;;;;;;;;;;;-3.30;40.57;100660.75;5026488;28;19913;-85
2022/01/26 02:05:08;;;;;;;;;;;;;;;-3.15;40.46;100653.88;5026282;28;19928;-84
2022/01/26 02:07:34;;;;;;;;;;;;;;;-3.37;40.47;100643.13;5026535;28;19990;-85
2022/01/26 02:10:01;;;;;;;;;;;;;;;-3.53;40.81;100634.53;5027159;28;19959;-84
2022/01/26 02:12:27;;;;;;;;;;;;;;;-3.39;41.73;100639.59;5026902;28;19928;-84
2022/01/26 02:15:03;;;;;;;;;;;;;;;-2.98;40.41;100635.81;5026669;28;19923;-85
2022/01/26 02:55:48;;;;;;;;;;;;;;;-2.38;38.91;100618.31;5006258;28;19922;-86
2022/01/26 02:58:45;;;;;;;;;;;;;;;-2.16;38.42;100616.03;5025397;28;19917;-85
2022/01/26 03:01:36;;;;;;;;;;;;;;;-2.24;38.23;100613.84;5025183;28;20310;-85
2022/01/26 03:04:11;;;;;;;;;;;;;;;-2.71;38.49;100608.88;5026078;28;19920;-85
2022/01/26 03:06:47;;;;;;;;;;;;;;;-2.51;38.24;100611.63;5025777;28;19913;-85
2022/01/26 03:09:16;;;;;;;;;;;;;;;-2.47;37.45;100611.00;5024089;28;20702;-85
2022/01/26 03:11:44;;;;;;;;;;;;;;;-2.46;37.15;100601.53;5025036;28;20014;-86
2022/01/26 03:14:28;;;;;;;;;;;;;;;-2.54;37.37;100599.44;5026574;28;19905;-85
2022/01/26 03:17:03;;;;;;;;;;;;;;;-2.56;37.63;100603.66;5024661;28;20319;-85
2022/01/26 03:19:51;;;;;;;;;;;;;;;-2.69;37.92;100606.38;5025122;28;20004;-86
2022/01/26 03:33:13;;;;;;;;;;;;;;;-2.74;38.92;100589.75;5025694;28;19970;-87
2022/01/26 03:38:05;;;;;;;;;;;;;;;-2.51;39.62;100593.53;5025983;28;20014;-85
2022/01/26 03:40:34;;;;;;;;;;;;;;;-2.57;39.47;100583.78;5024493;28;19920;-85
2022/01/26 03:43:00;;;;;;;;;;;;;;;-2.59;39.13;100587.09;5026928;28;19913;-86
2022/01/26 03:45:26;;;;;;;;;;;;;;;-2.52;38.98;100584.00;5028055;28;20364;-86
2022/01/26 03:47:52;;;;;;;;;;;;;;;-2.59;39.09;100582.81;5029167;28;19970;-86
2022/01/26 03:50:17;;;;;;;;;;;;;;;-2.73;39.67;100581.22;5028162;28;20012;-86
2022/01/26 03:52:42;;;;;;;;;;;;;;;-2.65;39.43;100582.50;5028292;28;19917;-86
2022/01/26 03:55:08;;;;;;;;;;;;;;;-2.57;39.26;100578.59;5028383;28;19964;-85
2022/01/26 03:57:33;;;;;;;;;;;;;;;-2.48;38.58;100585.09;5028121;28;20004;-85
2022/01/26 03:59:58;;;;;;;;;;;;;;;-2.55;39.54;100573.53;5028975;28;20331;-85
2022/01/26 04:02:24;;;;;;;;;;;;;;;-2.44;39.09;100587.91;5026849;28;19956;-85
2022/01/26 04:04:55;;;;;;;;;;;;;;;-2.37;39.22;100589.97;5028894;28;19913;-85
2022/01/26 04:07:21;;;;;;;;;;;;;;;-2.32;39.16;100574.69;5028783;28;19909;-85
2022/01/26 04:09:46;;;;;;;;;;;;;;;-2.26;39.40;100584.47;5028857;28;19909;-85
2022/01/26 04:12:11;;;;;;;;;;;;;;;-2.31;39.90;100584.25;5027944;28;19928;-85
2022/01/26 04:14:37;;;;;;;;;;;;;;;-2.01;40.01;100579.72;5028637;28;19916;-85
2022/01/26 04:17:02;;;;;;;;;;;;;;;-2.09;40.16;100580.16;5027940;28;20422;-86
2022/01/26 04:19:31;;;;;;;;;;;;;;;-2.39;40.31;100578.69;5028171;28;19913;-86
2022/01/26 04:22:15;;;;;;;;;;;;;;;-2.36;40.39;100571.06;5028124;28;19923;-86
2022/01/26 04:24:46;;;;;;;;;;;;;;;-2.35;39.79;100579.72;5027272;28;19915;-85
2022/01/26 04:27:31;;;;;;;;;;;;;;;-2.35;40.25;100577.13;5028516;28;20019;-85
2022/01/26 04:29:56;;;;;;;;;;;;;;;-2.35;40.13;100580.63;5027500;28;20773;-85
2022/01/26 04:32:23;;;;;;;;;;;;;;;-2.26;40.15;100581.88;5027550;28;19913;-85
2022/01/26 04:34:49;;;;;;;;;;;;;;;-2.01;39.19;100577.16;5027666;28;20059;-87
2022/01/26 04:39:50;;;;;;;;;;;;;;;-1.78;39.78;100573.91;5028001;28;19956;-86
2022/01/26 04:42:23;;;;;;;;;;;;;;;-1.78;39.33;100576.50;5019253;28;19917;-86
2022/01/26 04:44:58;;;;;;;;;;;;;;;-1.86;38.93;100577.00;5028633;28;19916;-87
2022/01/26 04:47:24;;;;;;;;;;;;;;;-2.15;38.50;100578.13;5027940;28;19917;-85
2022/01/26 04:49:49;;;;;;;;;;;;;;;-2.20;38.81;100571.84;5027558;28;19913;-86
2022/01/26 04:52:14;;;;;;;;;;;;;;;-2.08;38.86;100567.28;5027920;28;19967;-86
2022/01/26 04:54:40;;;;;;;;;;;;;;;-2.04;38.70;100573.50;5028139;28;19913;-88
2022/01/26 04:57:05;;;;;;;;;;;;;;;-2.23;39.86;100571.69;5026904;28;20276;-83
2022/01/26 04:59:30;;;;;;;;;;;;;;;-2.16;38.68;100558.28;5027654;28;20357;-84
2022/01/26 05:01:56;;;;;;;;;;;;;;;-2.14;39.23;100559.25;5026344;28;19924;-84
2022/01/26 05:04:21;;;;;;;;;;;;;;;-2.20;39.24;100564.97;5027689;28;19939;-84
2022/01/26 05:06:46;;;;;;;;;;;;;;;-2.49;39.36;100566.09;5025373;28;20409;-84
2022/01/26 05:09:12;;;;;;;;;;;;;;;-2.58;38.92;100565.59;5026065;28;19913;-84
2022/01/26 05:11:40;;;;;;;;;;;;;;;-2.44;39.28;100572.41;5026761;28;20730;-84
2022/01/26 05:14:06;;;;;;;;;;;;;;;-2.43;39.28;100571.56;5027984;28;19913;-84
2022/01/26 05:16:32;;;;;;;;;;;;;;;-2.08;39.49;100574.19;5025913;28;19979;-84
2022/01/26 05:18:58;;;;;;;;;;;;;;;-1.98;39.37;100576.38;5026970;28;19949;-84
2022/01/26 05:21:24;;;;;;;;;;;;;;;-1.93;38.47;100581.78;5024895;28;20300;-87
2022/01/26 05:23:49;;;;;;;;;;;;;;;-1.99;39.93;100580.69;5026949;28;19913;-87
2022/01/26 05:26:14;;;;;;;;;;;;;;;-1.97;39.30;100580.75;5026764;28;19971;-87
2022/01/26 05:28:40;;;;;;;;;;;;;;;-1.81;39.60;100572.03;5026359;28;19913;-85
2022/01/26 05:31:05;;;;;;;;;;;;;;;-2.22;40.10;100565.72;5017691;28;19963;-85
2022/01/26 05:33:31;;;;;;;;;;;;;;;-2.38;40.17;100572.72;5007897;28;19971;-86
2022/01/26 05:35:57;;;;;;;;;;;;;;;-2.38;41.43;100571.81;5007637;28;19913;-86
2022/01/26 05:38:22;;;;;;;;;;;;;;;-2.38;41.73;100564.97;5016034;28;19927;-88
2022/01/26 05:40:48;;;;;;;;;;;;;;;-2.21;42.08;100570.97;5055226;28;19923;-85
2022/01/26 05:43:15;;;;;;;;;;;;;;;-2.08;42.45;100572.47;5027260;28;19967;-84
2022/01/26 05:45:41;;;;;;;;;;;;;;;-1.97;42.63;100570.41;5017874;28;19971;-83
2022/01/26 05:48:11;;;;;;;;;;;;;;;-1.76;42.13;100560.25;5021634;28;19935;-83
2022/01/26 05:50:37;;;;;;;;;;;;;;;-1.84;42.59;100564.13;5025167;28;19913;-83
2022/01/26 05:53:03;;;;;;;;;;;;;;;-1.80;41.80;100572.13;5013567;28;19925;-83
2022/01/26 05:55:28;;;;;;;;;;;;;;;-2.07;42.77;100576.84;5046705;28;19931;-85
2022/01/26 05:57:53;;;;;;;;;;;;;;;-1.97;40.77;100573.00;5046684;28;19913;-87
2022/01/26 06:00:19;;;;;;;;;;;;;;;-1.85;40.50;100571.03;5044987;28;19912;-85
2022/01/26 06:02:45;;;;;;;;;;;;;;;-1.76;40.30;100569.69;5045192;28;19913;-82
2022/01/26 06:05:11;;;;;;;;;;;;;;;-1.66;40.26;100571.91;5043760;28;20264;-83
2022/01/26 06:07:36;;;;;;;;;;;;;;;-1.67;41.06;100567.53;5047011;28;19966;-83
2022/01/26 06:10:02;;;;;;;;;;;;;;;-1.73;41.63;100581.09;5046902;28;20286;-83
2022/01/26 06:12:29;;;;;;;;;;;;;;;-1.86;40.88;100577.00;5045818;28;19970;-83
2022/01/26 06:14:54;;;;;;;;;;;;;;;-1.74;40.77;100573.25;5046004;28;20011;-82
2022/01/26 06:17:20;;;;;;;;;;;;;;;-1.74;40.43;100573.25;5046994;28;20007;-82
2022/01/26 06:19:45;;;;;;;;;;;;;;;-1.77;40.22;100578.28;5046645;28;20003;-84
2022/01/26 06:22:10;;;;;;;;;;;;;;;-1.78;40.59;100581.66;5046615;28;19913;-81
2022/01/26 06:24:36;;;;;;;;;;;;;;;-1.65;40.16;100576.28;5046263;28;19913;-82
2022/01/26 06:27:01;;;;;;;;;;;;;;;-1.71;40.13;100576.88;5044375;28;19917;-81
2022/01/26 06:29:26;;;;;;;;;;;;;;;-1.73;40.40;100585.34;5045741;28;19925;-80
2022/01/26 06:31:52;;;;;;;;;;;;;;;-1.52;40.05;100576.03;5045041;28;19916;-82
2022/01/26 06:34:17;;;;;;;;;;;;;;;-1.67;40.16;100567.53;5044820;28;20711;-84
2022/01/26 06:36:43;;;;;;;;;;;;;;;-1.45;40.03;100572.06;5043901;28;20443;-84
2022/01/26 06:39:12;;;;;;;;;;;;;;;-1.45;40.16;100569.47;5045157;28;19915;-83
2022/01/26 06:41:38;;;;;;;;;;;;;;;-1.36;40.40;100569.91;5046123;28;20448;-85
2022/01/26 06:44:15;;;;;;;;;;;;;;;-1.55;40.63;100570.72;5045777;28;19913;-84
2022/01/26 06:46:54;;;;;;;;;;;;;;;-1.40;40.88;100567.97;5045865;28;19956;-83
2022/01/26 06:51:48;;;;;;;;;;;;;;;-1.05;40.84;100565.25;5046004;28;19909;-82
2022/01/26 06:54:13;;;;;;;;;;;;;;;-0.95;40.98;100568.31;5046257;28;19908;-82
2022/01/26 06:56:38;;;;;;;;;;;;;;;-0.75;40.91;100576.13;5044364;28;19912;-83
2022/01/26 06:59:04;;;;;;;;;;;;;;;-0.62;40.30;100564.56;5045846;28;19928;-81
2022/01/26 07:01:29;;;;;;;;;;;;;;;-0.53;40.48;100574.47;5045190;28;19909;-83
2022/01/26 07:03:54;;;;;;;;;;;;;;;-0.51;39.96;100575.41;5045651;28;19912;-82
2022/01/26 07:06:20;;;;;;;;;;;;;;;-0.46;40.55;100581.72;5045771;28;19909;-83
2022/01/26 07:08:46;;;;;;;;;;;;;;;-0.50;40.25;100572.00;5046305;28;19916;-81
2022/01/26 07:11:11;;;;;;;;;;;;;;;-0.47;40.12;100583.38;5046123;28;19913;-81
2022/01/26 07:13:39;;;;;;;;;;;;;;;-0.56;40.88;100580.41;5045219;28;19912;-81
2022/01/26 07:21:32;;;;;;;;;;;;;;;-0.40;40.54;100569.00;5049547;28;20330;-81
2022/01/26 07:23:59;;;;;;;;;;;;;;;-0.34;40.76;100571.88;5048603;28;19913;-81
2022/01/26 07:26:27;;;;;;;;;;;;;;;-0.26;40.81;100567.88;5049935;28;19920;-81
2022/01/26 07:28:53;;;;;;;;;;;;;;;-0.04;40.33;100576.56;5050007;28;19908;-82
2022/01/26 07:31:19;;;;;;;;;;;;;;;-0.09;40.50;100580.69;5049134;28;19943;-81
2022/01/26 07:33:44;;;;;;;;;;;;;;;-0.13;40.70;100582.25;5049859;28;19921;-82
2022/01/26 07:36:09;;;;;;;;;;;;;;;-0.20;40.65;100586.31;5048990;28;19912;-79
2022/01/26 07:38:35;;;;;;;;;;;;;;;0.01;40.88;100576.78;5049046;28;20016;-80
2022/01/26 07:41:00;;;;;;;;;;;;;;;0.24;40.43;100576.00;5049172;28;20375;-79
2022/01/26 07:43:26;;;;;;;;;;;;;;;0.07;40.56;100579.63;5049135;28;20283;-79
2022/01/26 07:45:51;;;;;;;;;;;;;;;0.05;41.21;100584.75;5048021;28;19948;-80
2022/01/26 07:48:16;;;;;;;;;;;;;;;0.18;40.90;100579.22;5048817;28;19904;-80
2022/01/26 07:50:42;;;;;;;;;;;;;;;0.07;40.56;100580.50;5048399;28;19908;-80
2022/01/26 07:53:13;;;;;;;;;;;;;;;0.20;40.84;100575.81;5048270;28;19928;-80
2022/01/26 07:55:39;;;;;;;;;;;;;;;0.11;41.00;100577.22;5048261;28;19908;-79
2022/01/26 07:58:08;;;;;;;;;;;;;;;0.24;41.39;100563.03;5048996;28;19956;-80
2022/01/26 08:00:34;;;;;;;;;;;;;;;0.20;40.73;100581.00;5048977;28;19999;-80
2022/01/26 08:02:59;;;;;;;;;;;;;;;0.30;41.04;100568.47;5048387;28;20024;-80
2022/01/26 08:05:24;;;;;;;;;;;;;;;0.35;41.15;100572.13;5046762;28;19966;-81
2022/01/26 08:07:50;;;;;;;;;;;;;;;0.41;41.23;100579.28;5048359;28;20031;-80
2022/01/26 08:10:15;;;;;;;;;;;;;;;0.44;40.64;100579.41;5047079;28;20325;-80
2022/01/26 08:12:40;;;;;;;;;;;;;;;0.54;41.05;100578.03;5046773;28;20042;-80
2022/01/26 08:15:07;;;;;;;;;;;;;;;0.61;40.98;100572.28;5047872;28;19908;-81
2022/01/26 08:17:33;;;;;;;;;;;;;;;0.43;40.89;100579.34;5047145;28;19970;-81
2022/01/26 08:19:59;;;;;;;;;;;;;;;0.41;41.44;100568.88;5047466;28;19909;-81
2022/01/26 08:22:26;;;;;;;;;;;;;;;0.67;41.58;100576.84;5047957;28;19917;-80
2022/01/26 08:24:52;;;;;;;;;;;;;;;0.89;41.53;100566.41;5048291;28;19958;-83
2022/01/26 08:27:19;;;;;;;;;;;;;;;0.79;41.21;100564.31;5048797;28;19913;-80
2022/01/26 08:29:49;;;;;;;;;;;;;;;0.78;40.90;100564.25;5047980;28;20359;-81
2022/01/26 08:32:15;;;;;;;;;;;;;;;1.01;41.16;100566.00;5047891;28;19919;-81
2022/01/26 08:34:40;;;;;;;;;;;;;;;0.89;40.88;100576.81;5048572;28;20693;-81
2022/01/26 08:37:06;;;;;;;;;;;;;;;0.91;40.89;100570.81;5048392;28;19913;-80
2022/01/26 08:39:32;;;;;;;;;;;;;;;1.14;40.96;100567.34;5048419;28;19925;-80
2022/01/26 08:41:58;;;;;;;;;;;;;;;1.15;40.47;100573.44;5048270;28;20378;-80
2022/01/26 08:44:24;;;;;;;;;;;;;;;1.22;40.72;100565.94;5048187;28;20011;-80
2022/01/26 08:46:50;;;;;;;;;;;;;;;1.29;40.87;100561.84;5047398;28;20035;-80
2022/01/26 08:49:15;;;;;;;;;;;;;;;1.08;40.56;100564.50;5046979;28;19919;-80
2022/01/26 08:51:41;;;;;;;;;;;;;;;1.27;40.46;100571.31;5048187;28;20697;-80
2022/01/26 08:54:08;;;;;;;;;;;;;;;1.29;40.95;100571.34;5047646;28;19917;-80
2022/01/26 08:56:33;;;;;;;;;;;;;;;1.16;40.63;100570.91;5048106;28;20389;-80
2022/01/26 08:58:58;;;;;;;;;;;;;;;0.98;41.21;100570.22;5046640;28;19956;-80
2022/01/26 09:01:24;;;;;;;;;;;;;;;1.05;40.86;100565.31;5045656;28;20372;-80
2022/01/26 09:03:49;;;;;;;;;;;;;;;1.14;40.85;100572.53;5044694;28;19912;-80
2022/01/26 09:06:14;;;;;;;;;;;;;;;0.98;40.97;100572.81;5046952;28;20329;-88
2022/01/26 09:08:42;;;;;;;;;;;;;;;1.22;40.77;100578.03;5046396;28;20649;-80
2022/01/26 09:11:08;;;;;;;;;;;;;;;1.13;40.81;100569.88;5046259;28;20367;-79
2022/01/26 09:13:35;;;;;;;;;;;;;;;1.28;40.85;100573.03;5046308;28;20007;-80
2022/01/26 09:16:01;;;;;;;;;;;;;;;1.04;40.98;100570.44;5045409;28;19966;-79
2022/01/26 09:18:41;;;;;;;;;;;;;;;1.21;41.00;100568.47;5046577;28;19967;-81
2022/01/26 09:21:06;;;;;;;;;;;;;;;1.34;40.54;100564.59;5047386;28;19909;-81
2022/01/26 09:23:32;;;;;;;;;;;;;;;1.16;41.65;100563.09;5046420;28;19913;-81
2022/01/26 09:25:57;;;;;;;;;;;;;;;1.37;41.08;100570.78;5047520;28;19912;-80
2022/01/26 09:28:24;;;;;;;;;;;;;;;1.65;40.92;100568.28;5047098;28;19935;-81
2022/01/26 09:30:50;;;;;;;;;;;;;;;1.66;40.45;100565.75;5045879;28;19916;-81
2022/01/26 09:33:15;;;;;;;;;;;;;;;1.51;40.46;100560.00;5047069;28;19913;-79
2022/01/26 09:35:40;;;;;;;;;;;;;;;1.46;41.17;100561.56;5047482;28;19909;-80
2022/01/26 09:38:06;;;;;;;;;;;;;;;1.65;40.03;100552.69;5046876;28;20019;-79
2022/01/26 09:40:31;;;;;;;;;;;;;;;1.76;40.91;100556.53;5046628;28;20393;-79
2022/01/26 09:42:57;;;;;;;;;;;;;;;1.73;40.82;100546.94;5046659;28;19917;-81
2022/01/26 09:45:22;;;;;;;;;;;;;;;1.98;40.48;100539.94;5046210;28;19923;-79
2022/01/26 09:47:47;;;;;;;;;;;;;;;2.08;40.94;100541.13;5046820;28;20345;-79
2022/01/26 09:50:13;;;;;;;;;;;;;;;2.03;40.94;100532.28;5046304;28;19908;-79
2022/01/26 09:52:45;;;;;;;;;;;;;;;1.97;41.77;100528.63;5046591;28;19923;-79
2022/01/26 09:55:10;;;;;;;;;;;;;;;2.21;41.89;100526.78;5045774;28;19913;-79
2022/01/26 09:57:38;;;;;;;;;;;;;;;2.36;41.82;100523.78;5045639;28;19913;-79
2022/01/26 10:00:04;;;;;;;;;;;;;;;2.24;42.46;100522.56;5046262;28;20023;-80
2022/01/26 10:02:31;;;;;;;;;;;;;;;2.17;43.10;100514.53;5045783;28;19920;-80
2022/01/26 10:04:58;;;;;;;;;;;;;;;2.33;42.85;100507.25;5044392;28;19917;-80
2022/01/26 10:07:29;;;;;;;;;;;;;;;2.22;43.00;100494.72;5045908;28;20384;-80
2022/01/26 10:10:00;;;;;;;;;;;;;;;2.36;43.54;100500.34;5045836;28;19917;-81
2022/01/26 10:18:09;;;;;;;;;;;;;;;2.39;43.95;100487.44;5045888;28;19966;-81
2022/01/26 10:20:42;;;;;;;;;;;;;;;2.33;44.41;100494.22;5046374;28;19920;-82
2022/01/26 10:23:08;;;;;;;;;;;;;;;2.18;44.80;100492.84;5044285;28;19908;-81
2022/01/26 10:25:34;;;;;;;;;;;;;;;2.19;44.74;100499.81;5045871;28;19915;-81
2022/01/26 10:27:59;;;;;;;;;;;;;;;2.34;44.21;100489.91;5046203;28;19912;-81
2022/01/26 10:30:24;;;;;;;;;;;;;;;2.32;44.55;100492.44;5046480;28;19995;-81
2022/01/26 10:32:50;;;;;;;;;;;;;;;2.32;44.45;100491.56;5046077;28;19987;-81
2022/01/26 10:35:16;;;;;;;;;;;;;;;2.41;44.65;100484.03;5046313;28;19913;-81
2022/01/26 10:37:55;;;;;;;;;;;;;;;2.30;45.34;100480.22;5046406;28;20758;-81
2022/01/26 10:40:24;;;;;;;;;;;;;;;2.28;45.42;100484.50;5046288;28;19924;-81
2022/01/26 10:43:06;;;;;;;;;;;;;;;2.49;45.26;100479.94;5045607;28;19994;-81
2022/01/26 10:45:33;;;;;;;;;;;;;;;2.41;45.58;100472.72;5045091;28;19913;-80
2022/01/26 10:48:16;;;;;;;;;;;;;;;2.58;44.82;100468.94;5046102;28;20379;-81
2022/01/26 10:53:07;;;;;;;;;;;;;;;2.50;45.47;100473.00;5049393;28;19959;-81
2022/01/26 10:55:34;;;;;;;;;;;;;;;2.49;45.90;100466.91;5050338;28;19913;-81
2022/01/26 10:58:00;;;;;;;;;;;;;;;2.47;46.12;100455.59;5049931;28;19960;-79
2022/01/26 11:00:25;;;;;;;;;;;;;;;2.75;45.43;100465.91;5049248;28;19935;-81
2022/01/26 11:02:57;;;;;;;;;;;;;;;2.60;45.66;100462.03;5049723;28;19913;-81
2022/01/26 11:05:23;;;;;;;;;;;;;;;2.68;44.80;100455.31;5050051;28;20370;-81
2022/01/26 11:07:49;;;;;;;;;;;;;;;2.71;45.17;100466.69;5050323;28;19951;-82
2022/01/26 11:10:14;;;;;;;;;;;;;;;2.51;44.96;100462.63;5050066;28;19916;-81
2022/01/26 11:12:41;;;;;;;;;;;;;;;2.39;45.72;100445.75;5049863;28;20298;-81
2022/01/26 11:15:08;;;;;;;;;;;;;;;2.59;45.19;100452.44;5049701;28;20001;-81
2022/01/26 11:17:37;;;;;;;;;;;;;;;2.78;45.41;100450.38;5049617;28;19922;-81
2022/01/26 11:20:14;;;;;;;;;;;;;;;2.81;44.83;100443.53;5049642;28;21611;-82
2022/01/26 11:22:49;;;;;;;;;;;;;;;3.03;44.49;100442.41;5048577;28;19916;-81
2022/01/26 11:25:14;;;;;;;;;;;;;;;2.90;44.80;100437.69;5049047;28;19916;-81
2022/01/26 11:27:41;;;;;;;;;;;;;;;2.91;44.67;100430.78;5048529;28;19991;-82
2022/01/26 11:30:26;;;;;;;;;;;;;;;2.68;45.96;100437.06;5049804;28;19912;-81
2022/01/26 11:32:55;;;;;;;;;;;;;;;2.94;45.76;100421.31;5049252;28;19919;-81
2022/01/26 11:35:22;;;;;;;;;;;;;;;2.83;46.28;100414.91;5049510;28;20035;-81
2022/01/26 11:38:03;;;;;;;;;;;;;;;2.92;45.94;100406.44;5049095;28;19921;-81
2022/01/26 11:46:06;;;;;;;;;;;;;;;3.02;46.00;100404.13;5047964;28;20429;-81
2022/01/26 11:48:31;;;;;;;;;;;;;;;3.18;45.87;100400.22;5047196;28;19921;-81
2022/01/26 11:50:58;;;;;;;;;;;;;;;3.20;45.99;100393.31;5048063;28;20401;-81
2022/01/26 11:53:25;;;;;;;;;;;;;;;3.09;46.08;100391.25;5046178;28;19912;-83
2022/01/26 11:55:57;;;;;;;;;;;;;;;3.18;45.50;100399.31;5045758;28;19912;-83
2022/01/26 11:58:34;;;;;;;;;;;;;;;3.35;46.22;100389.34;5047411;28;19963;-84
2022/01/26 12:01:12;;;;;;;;;;;;;;;3.40;45.99;100387.75;5046414;28;19912;-81
2022/01/26 12:03:44;;;;;;;;;;;;;;;3.59;45.63;100376.03;5048164;28;19908;-82
2022/01/26 12:06:22;;;;;;;;;;;;;;;3.61;45.44;100379.53;5046329;28;19916;-82
2022/01/26 12:08:48;;;;;;;;;;;;;;;3.57;45.60;100375.13;5048019;28;20000;-82
2022/01/26 12:11:15;;;;;;;;;;;;;;;3.73;45.90;100386.78;5046853;28;19960;-81
2022/01/26 12:13:41;;;;;;;;;;;;;;;3.88;45.79;100373.22;5048704;28;19919;-81
2022/01/26 12:16:11;;;;;;;;;;;;;;;3.90;45.47;100376.75;5046846;28;19946;-81
2022/01/26 12:18:43;;;;;;;;;;;;;;;3.82;45.64;100375.69;5047065;28;19986;-83
2022/01/26 12:32:32;;;;;;;;;;;;;;;3.93;46.53;100380.31;5044960;28;20314;-82
2022/01/26 12:35:10;;;;;;;;;;;;;;;3.85;45.82;100375.78;5044508;28;19966;-83
2022/01/26 12:43:18;;;;;;;;;;;;;;;4.11;45.69;100366.78;5044412;28;19951;-82
2022/01/26 12:45:45;;;;;;;;;;;;;;;4.12;45.79;100378.09;5043470;28;20292;-82
2022/01/26 12:48:11;;;;;;;;;;;;;;;4.06;46.28;100388.41;5042779;28;20289;-81
2022/01/26 12:50:37;;;;;;;;;;;;;;;4.26;45.50;100383.63;5044507;28;19965;-82
2022/01/26 12:53:03;;;;;;;;;;;;;;;4.31;45.32;100387.25;5044069;28;19913;-81
2022/01/26 12:55:30;;;;;;;;;;;;;;;4.15;45.41;100380.78;5045351;28;19912;-81
2022/01/26 12:57:56;;;;;;;;;;;;;;;4.42;45.48;100371.78;5045535;28;19916;-81
2022/01/26 13:00:24;;;;;;;;;;;;;;;4.28;45.69;100377.59;5047252;28;19921;-81
2022/01/26 13:02:49;;;;;;;;;;;;;;;4.22;45.68;100371.38;5038597;28;19917;-83
2022/01/26 13:05:21;;;;;;;;;;;;;;;4.18;46.01;100378.25;5043167;28;19924;-83
2022/01/26 13:07:47;;;;;;;;;;;;;;;4.25;45.70;100377.53;5043490;28;20002;-82
2022/01/26 13:10:13;;;;;;;;;;;;;;;4.63;44.79;100382.69;5044563;28;20619;-82
2022/01/26 13:12:38;;;;;;;;;;;;;;;4.58;45.06;100380.81;5038815;28;20284;-82
2022/01/26 13:15:25;;;;;;;;;;;;;;;4.56;44.80;100386.00;5042170;28;19908;-81
2022/01/26 13:18:04;;;;;;;;;;;;;;;4.45;45.08;100374.47;5040638;28;19946;-81
2022/01/26 13:23:38;;;;;;;;;;;;;;;4.43;45.56;100390.13;5014462;28;19916;-81
2022/01/26 13:33:59;;;;;;;;;;;;;;;4.53;45.26;100385.94;5046519;28;19920;-81
2022/01/26 13:39:08;;;;;;;;;;;;;;;4.29;45.23;100384.59;5046317;28;19915;-81
2022/01/26 13:44:36;;;;;;;;;;;;;;;4.36;45.48;100388.22;5044842;28;19917;-82
2022/01/26 13:52:26;;;;;;;;;;;;;;;4.38;46.08;100399.56;5044413;28;19920;-83
2022/01/26 13:55:45;;;;;;;;;;;;;;;4.51;45.89;100381.53;5043329;28;20236;-83
2022/01/26 14:00:08;;;;;;;;;;;;;;;4.46;45.74;100390.19;5042629;28;20423;-82
2022/01/26 14:02:35;;;;;;;;;;;;;;;4.50;45.93;100395.47;5044466;28;20367;-82
2022/01/26 14:05:00;;;;;;;;;;;;;;;4.44;45.82;100389.25;5041555;28;19917;-80
2022/01/26 14:07:26;;;;;;;;;;;;;;;4.36;46.23;100389.94;5042528;28;20671;-82
2022/01/26 14:09:51;;;;;;;;;;;;;;;4.43;45.74;100387.50;5044609;28;19912;-81
2022/01/26 14:12:21;;;;;;;;;;;;;;;4.44;46.25;100385.75;5045040;28;20035;-82
2022/01/26 14:14:52;;;;;;;;;;;;;;;4.41;45.82;100396.16;5046352;28;19913;-82
2022/01/26 14:17:27;;;;;;;;;;;;;;;4.43;45.94;100390.13;5045357;28;20418;-81
2022/01/26 14:23:00;;;;;;;;;;;;;;;4.37;46.02;100395.22;5045385;28;19922;-82
2022/01/26 14:27:53;;;;;;;;;;;;;;;4.44;46.75;100386.63;5045098;28;19913;-81
2022/01/26 14:30:32;;;;;;;;;;;;;;;4.36;46.66;100389.94;5045083;28;19943;-81
2022/01/26 15:19:08;;;;;;;;;;;;;;;3.82;48.61;100412.25;5046321;28;19913;-80
2022/01/26 15:33:49;;;;;;;;;;;;;;;3.59;50.28;100421.25;5039155;28;19913;-82
2022/01/26 15:49:52;;;;;;;;;;;;;;;3.34;50.65;100440.63;5048775;28;19913;-82
2022/01/26 16:06:03;;;;;;;;;;;;;;;2.99;52.26;100455.31;5047296;28;20445;-81
2022/01/26 16:35:32;;;;;;;;;;;;;;;3.00;53.08;100491.84;5047995;28;19961;-80
2022/01/26 18:46:23;;;;;;;;;;;;;;;2.48;55.21;100571.94;5043146;28;20366;-82
2022/01/26 18:51:36;;;;;;;;;;;;;;;2.30;55.70;100569.63;5025919;28;20016;-84
2022/01/26 18:54:02;;;;;;;;;;;;;;;2.43;55.63;100572.63;5026302;28;20017;-84
2022/01/26 18:56:28;;;;;;;;;;;;;;;2.37;55.10;100570.72;5040464;28;19917;-82
2022/01/26 18:58:54;;;;;;;;;;;;;;;2.41;55.22;100572.59;5046422;28;19912;-81
2022/01/26 19:01:19;;;;;;;;;;;;;;;2.42;55.38;100576.06;5046038;28;19952;-82
2022/01/26 19:03:44;;;;;;;;;;;;;;;2.34;55.53;100568.00;5045462;28;20389;-81
2022/01/26 19:06:09;;;;;;;;;;;;;;;2.31;55.56;100568.78;5045953;28;20355;-82
2022/01/26 19:08:36;;;;;;;;;;;;;;;2.41;55.29;100575.19;5045119;28;20052;-82
2022/01/26 19:11:01;;;;;;;;;;;;;;;2.26;55.08;100574.69;5046563;28;19920;-81
2022/01/26 19:13:30;;;;;;;;;;;;;;;2.37;55.17;100588.94;5048394;28;19913;-82
2022/01/26 19:16:00;;;;;;;;;;;;;;;2.45;54.50;100576.16;5049577;28;19939;-83
2022/01/26 19:18:41;;;;;;;;;;;;;;;2.55;54.36;100590.34;5050200;28;19909;-84
2022/01/26 19:21:17;;;;;;;;;;;;;;;2.60;54.34;100592.28;5049715;28;19913;-83
2022/01/26 19:23:58;;;;;;;;;;;;;;;2.28;54.92;100588.63;5047495;28;20285;-83
2022/01/26 19:26:29;;;;;;;;;;;;;;;2.26;55.50;100587.72;5049751;28;19913;-83